Terminal Aerodrome Forecast
Issued by NWS

Home | Current Version | Previous Version | Text Only | Print | Product List | Glossary On
Versions: 1 2 3 4 5 6 7 8 9 10 11 12 13 14
000
FTUS43 KAPX 211730
TAFMBL
TAF
KMBL 211730Z 2118/2218 23006KT P6SM BKN200
     FM212100 24006KT P6SM VCSH BKN100
     FM220300 19004KT P6SM VCSH BKN080
     FM220600 18005KT 5SM -SHRA BR OVC060
     FM221000 28007KT 4SM -SHRA BR OVC015
     FM221200 27004KT P6SM OVC015
     FM221600 33011G20KT P6SM BKN040=

USA.gov is the U.S. government's official web portal to all federal, state and local government web resources and services.